sensor_id;sensor_type;location;lat;lon;timestamp;P1;durP1;ratioP1;P2;durP2;ratioP2
29712;SDS011;16623;53.632;10.016;2022-08-21T00:01:49;22.73;;;14.85;;
29712;SDS011;16623;53.632;10.016;2022-08-21T00:04:14;25.42;;;15.02;;
29712;SDS011;16623;53.632;10.016;2022-08-21T00:06:40;12.32;;;7.13;;
29712;SDS011;16623;53.632;10.016;2022-08-21T00:09:06;25.45;;;15.93;;
29712;SDS011;16623;53.632;10.016;2022-08-21T00:11:34;31.23;;;19.35;;
29712;SDS011;16623;53.632;10.016;2022-08-21T00:14:01;54.38;;;34.70;;
29712;SDS011;16623;53.632;10.016;2022-08-21T00:16:27;60.65;;;36.25;;
29712;SDS011;16623;53.632;10.016;2022-08-21T00:18:52;136.00;;;81.65;;
29712;SDS011;16623;53.632;10.016;2022-08-21T00:21:18;87.57;;;52.80;;
29712;SDS011;16623;53.632;10.016;2022-08-21T00:23:44;55.05;;;34.50;;
29712;SDS011;16623;53.632;10.016;2022-08-21T00:26:09;72.25;;;46.53;;
29712;SDS011;16623;53.632;10.016;2022-08-21T00:28:35;27.63;;;16.58;;
29712;SDS011;16623;53.632;10.016;2022-08-21T00:31:00;20.92;;;13.68;;
29712;SDS011;16623;53.632;10.016;2022-08-21T00:33:28;15.07;;;8.02;;
29712;SDS011;16623;53.632;10.016;2022-08-21T00:35:56;11.60;;;5.78;;
29712;SDS011;16623;53.632;10.016;2022-08-21T00:38:22;14.70;;;7.82;;
29712;SDS011;16623;53.632;10.016;2022-08-21T00:40:50;14.57;;;10.15;;
29712;SDS011;16623;53.632;10.016;2022-08-21T00:43:22;11.90;;;6.38;;
29712;SDS011;16623;53.632;10.016;2022-08-21T00:45:50;8.07;;;4.07;;
29712;SDS011;16623;53.632;10.016;2022-08-21T00:48:16;26.55;;;13.60;;
29712;SDS011;16623;53.632;10.016;2022-08-21T00:50:43;17.58;;;9.80;;
29712;SDS011;16623;53.632;10.016;2022-08-21T00:53:13;11.23;;;5.20;;
29712;SDS011;16623;53.632;10.016;2022-08-21T00:55:39;8.68;;;4.88;;
29712;SDS011;16623;53.632;10.016;2022-08-21T00:58:06;7.88;;;4.25;;
29712;SDS011;16623;53.632;10.016;2022-08-21T01:00:35;39.08;;;22.52;;
29712;SDS011;16623;53.632;10.016;2022-08-21T01:03:05;22.30;;;8.18;;
29712;SDS011;16623;53.632;10.016;2022-08-21T01:05:34;20.65;;;10.63;;
29712;SDS011;16623;53.632;10.016;2022-08-21T01:08:00;15.00;;;8.88;;
29712;SDS011;16623;53.632;10.016;2022-08-21T01:10:26;14.68;;;8.98;;
29712;SDS011;16623;53.632;10.016;2022-08-21T01:12:52;29.58;;;16.48;;
29712;SDS011;16623;53.632;10.016;2022-08-21T01:15:20;39.80;;;21.98;;
29712;SDS011;16623;53.632;10.016;2022-08-21T01:17:49;20.08;;;11.07;;
29712;SDS011;16623;53.632;10.016;2022-08-21T01:20:15;15.95;;;6.38;;
29712;SDS011;16623;53.632;10.016;2022-08-21T01:22:42;11.13;;;5.13;;
29712;SDS011;16623;53.632;10.016;2022-08-21T01:25:08;9.98;;;5.28;;
29712;SDS011;16623;53.632;10.016;2022-08-21T01:27:35;19.33;;;9.85;;
29712;SDS011;16623;53.632;10.016;2022-08-21T01:30:03;9.55;;;4.95;;
29712;SDS011;16623;53.632;10.016;2022-08-21T01:32:33;9.82;;;4.30;;
29712;SDS011;16623;53.632;10.016;2022-08-21T01:34:59;6.93;;;4.40;;
29712;SDS011;16623;53.632;10.016;2022-08-21T01:37:24;11.20;;;5.47;;
29712;SDS011;16623;53.632;10.016;2022-08-21T01:39:50;11.50;;;5.93;;
29712;SDS011;16623;53.632;10.016;2022-08-21T01:42:16;10.55;;;5.00;;
29712;SDS011;16623;53.632;10.016;2022-08-21T01:44:41;13.38;;;4.47;;
29712;SDS011;16623;53.632;10.016;2022-08-21T01:47:09;12.75;;;6.43;;
29712;SDS011;16623;53.632;10.016;2022-08-21T01:49:37;8.55;;;4.78;;
29712;SDS011;16623;53.632;10.016;2022-08-21T01:52:03;8.88;;;4.63;;
29712;SDS011;16623;53.632;10.016;2022-08-21T01:54:30;7.53;;;4.63;;
29712;SDS011;16623;53.632;10.016;2022-08-21T01:56:56;6.72;;;4.28;;
29712;SDS011;16623;53.632;10.016;2022-08-21T01:59:24;6.05;;;4.10;;
29712;SDS011;16623;53.632;10.016;2022-08-21T02:01:50;8.73;;;3.95;;
29712;SDS011;16623;53.632;10.016;2022-08-21T02:04:19;11.55;;;4.47;;
29712;SDS011;16623;53.632;10.016;2022-08-21T02:06:45;6.25;;;3.53;;
29712;SDS011;16623;53.632;10.016;2022-08-21T02:09:11;7.90;;;4.32;;
29712;SDS011;16623;53.632;10.016;2022-08-21T02:11:38;9.70;;;4.75;;
29712;SDS011;16623;53.632;10.016;2022-08-21T02:14:05;10.50;;;4.20;;
29712;SDS011;16623;53.632;10.016;2022-08-21T02:16:36;10.05;;;4.70;;
29712;SDS011;16623;53.632;10.016;2022-08-21T02:19:02;8.32;;;4.20;;
29712;SDS011;16623;53.632;10.016;2022-08-21T02:21:29;9.98;;;4.38;;
29712;SDS011;16623;53.632;10.016;2022-08-21T02:23:54;7.57;;;4.13;;
29712;SDS011;16623;53.632;10.016;2022-08-21T02:26:20;7.88;;;4.30;;
29712;SDS011;16623;53.632;10.016;2022-08-21T02:28:45;11.32;;;4.60;;
29712;SDS011;16623;53.632;10.016;2022-08-21T02:31:11;8.85;;;3.97;;
29712;SDS011;16623;53.632;10.016;2022-08-21T02:33:37;10.90;;;4.45;;
29712;SDS011;16623;53.632;10.016;2022-08-21T02:36:04;7.25;;;4.35;;
29712;SDS011;16623;53.632;10.016;2022-08-21T02:38:31;8.50;;;4.38;;
29712;SDS011;16623;53.632;10.016;2022-08-21T02:41:19;7.53;;;4.35;;
29712;SDS011;16623;53.632;10.016;2022-08-21T02:43:46;10.77;;;4.57;;
29712;SDS011;16623;53.632;10.016;2022-08-21T02:46:13;8.90;;;3.95;;
29712;SDS011;16623;53.632;10.016;2022-08-21T02:48:40;10.30;;;4.50;;
29712;SDS011;16623;53.632;10.016;2022-08-21T02:51:08;10.57;;;3.78;;
29712;SDS011;16623;53.632;10.016;2022-08-21T02:53:36;9.23;;;3.80;;
29712;SDS011;16623;53.632;10.016;2022-08-21T02:56:04;8.60;;;4.40;;
29712;SDS011;16623;53.632;10.016;2022-08-21T02:58:32;9.25;;;3.92;;
29712;SDS011;16623;53.632;10.016;2022-08-21T03:01:00;6.05;;;3.67;;
29712;SDS011;16623;53.632;10.016;2022-08-21T03:03:27;7.88;;;4.20;;
29712;SDS011;16623;53.632;10.016;2022-08-21T03:05:53;5.93;;;3.83;;
29712;SDS011;16623;53.632;10.016;2022-08-21T03:08:19;8.93;;;3.45;;
29712;SDS011;16623;53.632;10.016;2022-08-21T03:10:47;6.35;;;3.75;;
29712;SDS011;16623;53.632;10.016;2022-08-21T03:13:15;8.27;;;4.00;;
29712;SDS011;16623;53.632;10.016;2022-08-21T03:15:41;6.60;;;3.83;;
29712;SDS011;16623;53.632;10.016;2022-08-21T03:18:07;8.30;;;4.10;;
29712;SDS011;16623;53.632;10.016;2022-08-21T03:20:35;6.43;;;3.75;;
29712;SDS011;16623;53.632;10.016;2022-08-21T03:23:02;10.43;;;4.43;;
29712;SDS011;16623;53.632;10.016;2022-08-21T03:25:30;5.75;;;3.75;;
29712;SDS011;16623;53.632;10.016;2022-08-21T03:27:57;8.77;;;3.90;;
29712;SDS011;16623;53.632;10.016;2022-08-21T03:30:24;10.93;;;4.80;;
29712;SDS011;16623;53.632;10.016;2022-08-21T03:32:50;7.90;;;3.95;;
29712;SDS011;16623;53.632;10.016;2022-08-21T03:35:15;13.88;;;4.70;;
29712;SDS011;16623;53.632;10.016;2022-08-21T03:37:42;8.95;;;4.22;;
29712;SDS011;16623;53.632;10.016;2022-08-21T03:40:08;10.27;;;4.07;;
29712;SDS011;16623;53.632;10.016;2022-08-21T03:42:39;9.05;;;3.83;;
29712;SDS011;16623;53.632;10.016;2022-08-21T03:45:05;10.32;;;4.15;;
29712;SDS011;16623;53.632;10.016;2022-08-21T03:47:31;8.52;;;3.95;;
29712;SDS011;16623;53.632;10.016;2022-08-21T03:49:57;9.57;;;3.90;;
29712;SDS011;16623;53.632;10.016;2022-08-21T03:52:22;9.82;;;4.43;;
29712;SDS011;16623;53.632;10.016;2022-08-21T03:54:49;10.02;;;4.15;;
29712;SDS011;16623;53.632;10.016;2022-08-21T03:57:15;10.65;;;4.22;;
29712;SDS011;16623;53.632;10.016;2022-08-21T03:59:41;9.75;;;3.95;;
29712;SDS011;16623;53.632;10.016;2022-08-21T04:02:08;8.43;;;4.15;;
29712;SDS011;16623;53.632;10.016;2022-08-21T04:04:34;12.15;;;4.53;;
29712;SDS011;16623;53.632;10.016;2022-08-21T04:07:00;7.18;;;3.92;;
29712;SDS011;16623;53.632;10.016;2022-08-21T04:09:26;8.25;;;4.28;;
29712;SDS011;16623;53.632;10.016;2022-08-21T04:11:52;10.70;;;4.05;;
29712;SDS011;16623;53.632;10.016;2022-08-21T04:14:18;7.20;;;3.85;;
29712;SDS011;16623;53.632;10.016;2022-08-21T04:16:43;11.30;;;4.35;;
29712;SDS011;16623;53.632;10.016;2022-08-21T04:19:09;7.20;;;4.30;;
29712;SDS011;16623;53.632;10.016;2022-08-21T04:21:36;10.23;;;4.78;;
29712;SDS011;16623;53.632;10.016;2022-08-21T04:24:03;6.10;;;3.80;;
29712;SDS011;16623;53.632;10.016;2022-08-21T04:26:30;11.80;;;4.05;;
29712;SDS011;16623;53.632;10.016;2022-08-21T04:28:56;7.65;;;4.00;;
29712;SDS011;16623;53.632;10.016;2022-08-21T04:31:23;13.23;;;4.38;;
29712;SDS011;16623;53.632;10.016;2022-08-21T04:33:48;6.57;;;3.83;;
29712;SDS011;16623;53.632;10.016;2022-08-21T04:36:15;9.80;;;3.65;;
29712;SDS011;16623;53.632;10.016;2022-08-21T04:38:40;6.20;;;3.80;;
29712;SDS011;16623;53.632;10.016;2022-08-21T04:41:06;11.77;;;4.30;;
29712;SDS011;16623;53.632;10.016;2022-08-21T04:43:31;9.40;;;3.83;;
29712;SDS011;16623;53.632;10.016;2022-08-21T04:45:57;6.88;;;3.40;;
29712;SDS011;16623;53.632;10.016;2022-08-21T04:48:25;10.63;;;3.78;;
29712;SDS011;16623;53.632;10.016;2022-08-21T04:50:59;11.40;;;4.18;;
29712;SDS011;16623;53.632;10.016;2022-08-21T04:53:32;8.50;;;3.80;;
29712;SDS011;16623;53.632;10.016;2022-08-21T04:56:02;8.73;;;3.92;;
29712;SDS011;16623;53.632;10.016;2022-08-21T04:58:32;6.05;;;4.03;;
29712;SDS011;16623;53.632;10.016;2022-08-21T05:00:59;11.15;;;3.95;;
29712;SDS011;16623;53.632;10.016;2022-08-21T05:03:26;12.68;;;4.45;;
29712;SDS011;16623;53.632;10.016;2022-08-21T05:05:53;10.38;;;4.03;;
29712;SDS011;16623;53.632;10.016;2022-08-21T05:08:19;6.05;;;3.47;;
29712;SDS011;16623;53.632;10.016;2022-08-21T05:10:48;9.00;;;4.25;;
29712;SDS011;16623;53.632;10.016;2022-08-21T05:13:14;7.60;;;4.15;;
29712;SDS011;16623;53.632;10.016;2022-08-21T05:15:40;6.88;;;4.18;;
29712;SDS011;16623;53.632;10.016;2022-08-21T05:18:07;5.68;;;3.70;;
29712;SDS011;16623;53.632;10.016;2022-08-21T05:20:33;9.45;;;4.43;;
29712;SDS011;16623;53.632;10.016;2022-08-21T05:23:00;9.60;;;4.05;;
29712;SDS011;16623;53.632;10.016;2022-08-21T05:25:26;7.63;;;4.25;;
29712;SDS011;16623;53.632;10.016;2022-08-21T05:27:52;8.38;;;3.85;;
29712;SDS011;16623;53.632;10.016;2022-08-21T05:30:18;11.02;;;4.38;;
29712;SDS011;16623;53.632;10.016;2022-08-21T05:32:45;4.65;;;3.63;;
29712;SDS011;16623;53.632;10.016;2022-08-21T05:35:10;6.78;;;4.22;;
29712;SDS011;16623;53.632;10.016;2022-08-21T05:37:36;6.47;;;3.40;;
29712;SDS011;16623;53.632;10.016;2022-08-21T05:40:02;7.93;;;4.03;;
29712;SDS011;16623;53.632;10.016;2022-08-21T05:42:28;7.88;;;4.13;;
29712;SDS011;16623;53.632;10.016;2022-08-21T05:44:54;10.60;;;4.20;;
29712;SDS011;16623;53.632;10.016;2022-08-21T05:47:20;11.52;;;4.45;;
29712;SDS011;16623;53.632;10.016;2022-08-21T05:49:45;9.82;;;4.22;;
29712;SDS011;16623;53.632;10.016;2022-08-21T05:52:11;7.97;;;3.88;;
29712;SDS011;16623;53.632;10.016;2022-08-21T05:54:37;14.65;;;4.03;;
29712;SDS011;16623;53.632;10.016;2022-08-21T05:57:03;10.20;;;4.03;;
29712;SDS011;16623;53.632;10.016;2022-08-21T05:59:29;7.78;;;3.80;;
29712;SDS011;16623;53.632;10.016;2022-08-21T06:01:54;11.30;;;4.22;;
29712;SDS011;16623;53.632;10.016;2022-08-21T06:04:20;9.68;;;4.00;;
29712;SDS011;16623;53.632;10.016;2022-08-21T06:06:45;9.70;;;3.78;;
29712;SDS011;16623;53.632;10.016;2022-08-21T06:09:12;9.05;;;4.15;;
29712;SDS011;16623;53.632;10.016;2022-08-21T06:11:38;6.47;;;3.45;;
29712;SDS011;16623;53.632;10.016;2022-08-21T06:14:03;11.60;;;3.90;;
29712;SDS011;16623;53.632;10.016;2022-08-21T06:16:31;7.57;;;3.60;;
29712;SDS011;16623;53.632;10.016;2022-08-21T06:18:57;7.28;;;3.50;;
29712;SDS011;16623;53.632;10.016;2022-08-21T06:21:22;13.35;;;3.97;;
29712;SDS011;16623;53.632;10.016;2022-08-21T06:23:48;9.57;;;3.70;;
29712;SDS011;16623;53.632;10.016;2022-08-21T06:26:14;10.40;;;3.42;;
29712;SDS011;16623;53.632;10.016;2022-08-21T06:28:41;10.80;;;3.78;;
29712;SDS011;16623;53.632;10.016;2022-08-21T06:31:17;6.53;;;3.10;;
29712;SDS011;16623;53.632;10.016;2022-08-21T06:33:45;7.80;;;3.35;;
29712;SDS011;16623;53.632;10.016;2022-08-21T06:36:11;7.00;;;3.10;;
29712;SDS011;16623;53.632;10.016;2022-08-21T06:38:37;6.35;;;3.10;;
29712;SDS011;16623;53.632;10.016;2022-08-21T06:41:03;9.35;;;3.53;;
29712;SDS011;16623;53.632;10.016;2022-08-21T06:43:29;5.47;;;3.20;;
29712;SDS011;16623;53.632;10.016;2022-08-21T06:45:55;6.47;;;2.83;;
29712;SDS011;16623;53.632;10.016;2022-08-21T06:48:21;7.47;;;3.03;;
29712;SDS011;16623;53.632;10.016;2022-08-21T06:50:47;6.18;;;2.83;;
29712;SDS011;16623;53.632;10.016;2022-08-21T06:53:14;4.43;;;2.35;;
29712;SDS011;16623;53.632;10.016;2022-08-21T06:55:41;5.18;;;2.80;;
29712;SDS011;16623;53.632;10.016;2022-08-21T06:58:07;5.90;;;2.72;;
29712;SDS011;16623;53.632;10.016;2022-08-21T07:00:33;12.65;;;2.40;;
29712;SDS011;16623;53.632;10.016;2022-08-21T07:03:00;6.40;;;2.40;;
29712;SDS011;16623;53.632;10.016;2022-08-21T07:05:26;6.03;;;2.33;;
29712;SDS011;16623;53.632;10.016;2022-08-21T07:07:53;12.70;;;2.72;;
29712;SDS011;16623;53.632;10.016;2022-08-21T07:10:19;9.00;;;2.33;;
29712;SDS011;16623;53.632;10.016;2022-08-21T07:12:44;5.40;;;2.50;;
29712;SDS011;16623;53.632;10.016;2022-08-21T07:15:10;7.93;;;2.83;;
29712;SDS011;16623;53.632;10.016;2022-08-21T07:17:35;8.23;;;2.80;;
29712;SDS011;16623;53.632;10.016;2022-08-21T07:20:01;9.15;;;2.22;;
29712;SDS011;16623;53.632;10.016;2022-08-21T07:22:29;6.65;;;2.25;;
29712;SDS011;16623;53.632;10.016;2022-08-21T07:24:54;5.43;;;2.10;;
29712;SDS011;16623;53.632;10.016;2022-08-21T07:27:20;7.85;;;2.88;;
29712;SDS011;16623;53.632;10.016;2022-08-21T07:29:45;6.38;;;2.03;;
29712;SDS011;16623;53.632;10.016;2022-08-21T07:32:11;6.03;;;2.22;;
29712;SDS011;16623;53.632;10.016;2022-08-21T07:34:37;3.97;;;1.67;;
29712;SDS011;16623;53.632;10.016;2022-08-21T07:37:02;6.28;;;2.28;;
29712;SDS011;16623;53.632;10.016;2022-08-21T07:39:28;6.90;;;2.20;;
29712;SDS011;16623;53.632;10.016;2022-08-21T07:41:54;5.72;;;1.85;;
29712;SDS011;16623;53.632;10.016;2022-08-21T07:44:19;7.45;;;1.75;;
29712;SDS011;16623;53.632;10.016;2022-08-21T07:46:45;5.28;;;1.80;;
29712;SDS011;16623;53.632;10.016;2022-08-21T07:49:11;11.13;;;2.45;;
29712;SDS011;16623;53.632;10.016;2022-08-21T07:51:36;8.70;;;2.00;;
29712;SDS011;16623;53.632;10.016;2022-08-21T07:54:02;5.13;;;1.75;;
29712;SDS011;16623;53.632;10.016;2022-08-21T07:56:28;5.60;;;2.35;;
29712;SDS011;16623;53.632;10.016;2022-08-21T07:58:55;5.93;;;1.80;;
29712;SDS011;16623;53.632;10.016;2022-08-21T08:01:23;6.88;;;2.15;;
29712;SDS011;16623;53.632;10.016;2022-08-21T08:03:48;10.25;;;1.83;;
29712;SDS011;16623;53.632;10.016;2022-08-21T08:06:14;4.80;;;1.65;;
29712;SDS011;16623;53.632;10.016;2022-08-21T08:08:43;6.88;;;2.35;;
29712;SDS011;16623;53.632;10.016;2022-08-21T08:11:10;10.63;;;2.25;;
29712;SDS011;16623;53.632;10.016;2022-08-21T08:13:40;5.97;;;2.00;;
29712;SDS011;16623;53.632;10.016;2022-08-21T08:16:07;7.80;;;2.03;;
29712;SDS011;16623;53.632;10.016;2022-08-21T08:18:37;8.88;;;2.42;;
29712;SDS011;16623;53.632;10.016;2022-08-21T08:21:05;7.40;;;2.13;;
29712;SDS011;16623;53.632;10.016;2022-08-21T08:23:31;5.97;;;2.78;;
29712;SDS011;16623;53.632;10.016;2022-08-21T08:25:57;7.90;;;2.20;;
29712;SDS011;16623;53.632;10.016;2022-08-21T08:28:23;5.15;;;1.83;;
29712;SDS011;16623;53.632;10.016;2022-08-21T08:30:49;8.45;;;2.17;;
29712;SDS011;16623;53.632;10.016;2022-08-21T08:33:15;5.90;;;2.22;;
29712;SDS011;16623;53.632;10.016;2022-08-21T08:35:42;5.10;;;2.45;;
29712;SDS011;16623;53.632;10.016;2022-08-21T08:38:11;7.25;;;2.00;;
29712;SDS011;16623;53.632;10.016;2022-08-21T08:40:44;6.28;;;2.38;;
29712;SDS011;16623;53.632;10.016;2022-08-21T08:43:16;4.78;;;1.88;;
29712;SDS011;16623;53.632;10.016;2022-08-21T08:45:42;7.07;;;2.00;;
29712;SDS011;16623;53.632;10.016;2022-08-21T08:48:14;4.63;;;1.75;;
29712;SDS011;16623;53.632;10.016;2022-08-21T08:50:51;3.60;;;1.67;;
29712;SDS011;16623;53.632;10.016;2022-08-21T08:53:23;6.22;;;1.63;;
29712;SDS011;16623;53.632;10.016;2022-08-21T08:55:56;7.78;;;1.60;;
29712;SDS011;16623;53.632;10.016;2022-08-21T08:58:27;5.57;;;2.08;;
29712;SDS011;16623;53.632;10.016;2022-08-21T09:00:56;8.48;;;2.03;;
29712;SDS011;16623;53.632;10.016;2022-08-21T09:03:23;8.70;;;1.73;;
29712;SDS011;16623;53.632;10.016;2022-08-21T09:05:56;5.53;;;1.65;;
29712;SDS011;16623;53.632;10.016;2022-08-21T09:08:49;6.63;;;2.08;;
29712;SDS011;16623;53.632;10.016;2022-08-21T09:11:41;11.43;;;2.17;;
29712;SDS011;16623;53.632;10.016;2022-08-21T09:16:53;11.45;;;2.03;;
29712;SDS011;16623;53.632;10.016;2022-08-21T09:22:06;7.25;;;2.15;;
29712;SDS011;16623;53.632;10.016;2022-08-21T09:27:27;9.40;;;2.00;;
29712;SDS011;16623;53.632;10.016;2022-08-21T09:29:54;8.73;;;2.13;;
29712;SDS011;16623;53.632;10.016;2022-08-21T09:32:29;11.45;;;2.15;;
29712;SDS011;16623;53.632;10.016;2022-08-21T09:35:13;6.47;;;1.92;;
29712;SDS011;16623;53.632;10.016;2022-08-21T09:38:01;14.05;;;2.72;;
29712;SDS011;16623;53.632;10.016;2022-08-21T09:43:14;9.18;;;3.03;;
29712;SDS011;16623;53.632;10.016;2022-08-21T09:45:46;13.15;;;2.65;;
29712;SDS011;16623;53.632;10.016;2022-08-21T09:50:46;8.68;;;2.75;;
29712;SDS011;16623;53.632;10.016;2022-08-21T09:53:15;9.27;;;2.33;;
29712;SDS011;16623;53.632;10.016;2022-08-21T09:56:03;8.05;;;1.98;;
29712;SDS011;16623;53.632;10.016;2022-08-21T09:58:49;8.60;;;2.25;;
29712;SDS011;16623;53.632;10.016;2022-08-21T10:01:18;10.07;;;2.47;;
29712;SDS011;16623;53.632;10.016;2022-08-21T10:03:48;9.73;;;2.30;;
29712;SDS011;16623;53.632;10.016;2022-08-21T10:06:27;7.18;;;2.22;;
29712;SDS011;16623;53.632;10.016;2022-08-21T10:09:07;9.20;;;2.65;;
29712;SDS011;16623;53.632;10.016;2022-08-21T10:11:35;7.07;;;2.10;;
29712;SDS011;16623;53.632;10.016;2022-08-21T10:16:45;7.88;;;2.10;;
29712;SDS011;16623;53.632;10.016;2022-08-21T10:19:26;6.82;;;2.00;;
29712;SDS011;16623;53.632;10.016;2022-08-21T10:24:56;8.70;;;1.85;;
29712;SDS011;16623;53.632;10.016;2022-08-21T10:28:00;8.35;;;2.08;;
29712;SDS011;16623;53.632;10.016;2022-08-21T10:30:50;8.85;;;1.83;;
29712;SDS011;16623;53.632;10.016;2022-08-21T10:36:37;4.72;;;1.90;;
29712;SDS011;16623;53.632;10.016;2022-08-21T10:39:16;8.38;;;2.20;;
29712;SDS011;16623;53.632;10.016;2022-08-21T10:42:25;6.68;;;1.98;;
29712;SDS011;16623;53.632;10.016;2022-08-21T10:45:08;7.10;;;1.42;;
29712;SDS011;16623;53.632;10.016;2022-08-21T10:48:02;4.68;;;1.50;;
29712;SDS011;16623;53.632;10.016;2022-08-21T10:50:35;8.55;;;1.88;;
29712;SDS011;16623;53.632;10.016;2022-08-21T10:55:52;4.85;;;1.75;;
29712;SDS011;16623;53.632;10.016;2022-08-21T10:58:30;5.07;;;1.40;;
29712;SDS011;16623;53.632;10.016;2022-08-21T11:01:07;3.45;;;1.60;;
29712;SDS011;16623;53.632;10.016;2022-08-21T11:03:45;5.32;;;1.60;;
29712;SDS011;16623;53.632;10.016;2022-08-21T11:06:14;2.72;;;1.50;;
29712;SDS011;16623;53.632;10.016;2022-08-21T11:08:45;3.55;;;1.70;;
29712;SDS011;16623;53.632;10.016;2022-08-21T11:11:20;4.57;;;1.83;;
29712;SDS011;16623;53.632;10.016;2022-08-21T11:13:58;5.28;;;1.75;;
29712;SDS011;16623;53.632;10.016;2022-08-21T11:16:44;3.85;;;1.67;;
29712;SDS011;16623;53.632;10.016;2022-08-21T11:19:31;7.97;;;1.80;;
29712;SDS011;16623;53.632;10.016;2022-08-21T11:22:08;5.70;;;1.67;;
29712;SDS011;16623;53.632;10.016;2022-08-21T11:25:03;4.97;;;1.73;;
29712;SDS011;16623;53.632;10.016;2022-08-21T11:27:50;4.70;;;1.70;;
29712;SDS011;16623;53.632;10.016;2022-08-21T11:30:21;4.53;;;1.60;;
29712;SDS011;16623;53.632;10.016;2022-08-21T11:35:39;6.10;;;1.70;;
29712;SDS011;16623;53.632;10.016;2022-08-21T11:38:13;6.55;;;2.17;;
29712;SDS011;16623;53.632;10.016;2022-08-21T11:41:05;5.43;;;1.77;;
29712;SDS011;16623;53.632;10.016;2022-08-21T11:43:47;3.22;;;1.45;;
29712;SDS011;16623;53.632;10.016;2022-08-21T11:46:27;3.55;;;1.30;;
29712;SDS011;16623;53.632;10.016;2022-08-21T11:55:08;5.43;;;1.63;;
29712;SDS011;16623;53.632;10.016;2022-08-21T11:57:54;6.68;;;1.77;;
29712;SDS011;16623;53.632;10.016;2022-08-21T12:02:58;4.30;;;1.70;;
29712;SDS011;16623;53.632;10.016;2022-08-21T12:05:34;4.25;;;1.65;;
29712;SDS011;16623;53.632;10.016;2022-08-21T12:08:14;4.75;;;2.13;;
29712;SDS011;16623;53.632;10.016;2022-08-21T12:11:01;4.85;;;2.35;;
29712;SDS011;16623;53.632;10.016;2022-08-21T12:13:32;4.97;;;2.08;;
29712;SDS011;16623;53.632;10.016;2022-08-21T12:16:11;3.40;;;1.55;;
29712;SDS011;16623;53.632;10.016;2022-08-21T12:18:39;5.05;;;1.73;;
29712;SDS011;16623;53.632;10.016;2022-08-21T12:23:59;4.72;;;1.70;;
29712;SDS011;16623;53.632;10.016;2022-08-21T12:26:30;4.47;;;1.83;;
29712;SDS011;16623;53.632;10.016;2022-08-21T12:29:31;2.75;;;1.50;;
29712;SDS011;16623;53.632;10.016;2022-08-21T12:34:36;51.92;;;36.55;;
29712;SDS011;16623;53.632;10.016;2022-08-21T12:37:31;4.03;;;1.73;;
29712;SDS011;16623;53.632;10.016;2022-08-21T12:40:00;3.50;;;1.63;;
29712;SDS011;16623;53.632;10.016;2022-08-21T12:45:18;6.32;;;1.65;;
29712;SDS011;16623;53.632;10.016;2022-08-21T12:48:00;6.25;;;1.60;;
29712;SDS011;16623;53.632;10.016;2022-08-21T12:50:36;5.40;;;1.13;;
29712;SDS011;16623;53.632;10.016;2022-08-21T12:53:07;6.22;;;2.05;;
29712;SDS011;16623;53.632;10.016;2022-08-21T12:55:57;3.42;;;1.27;;
29712;SDS011;16623;53.632;10.016;2022-08-21T12:58:28;6.55;;;4.50;;
29712;SDS011;16623;53.632;10.016;2022-08-21T13:01:15;4.38;;;1.80;;
29712;SDS011;16623;53.632;10.016;2022-08-21T13:03:55;5.30;;;2.20;;
29712;SDS011;16623;53.632;10.016;2022-08-21T13:06:24;5.32;;;1.73;;
29712;SDS011;16623;53.632;10.016;2022-08-21T13:08:53;6.82;;;1.90;;
29712;SDS011;16623;53.632;10.016;2022-08-21T13:11:24;3.72;;;1.55;;
29712;SDS011;16623;53.632;10.016;2022-08-21T13:13:50;4.88;;;1.92;;
29712;SDS011;16623;53.632;10.016;2022-08-21T13:16:23;3.38;;;1.10;;
29712;SDS011;16623;53.632;10.016;2022-08-21T13:19:06;3.15;;;1.83;;
29712;SDS011;16623;53.632;10.016;2022-08-21T13:21:34;1.15;;;1.00;;
29712;SDS011;16623;53.632;10.016;2022-08-21T13:24:18;4.68;;;1.13;;
29712;SDS011;16623;53.632;10.016;2022-08-21T13:26:46;3.70;;;1.30;;
29712;SDS011;16623;53.632;10.016;2022-08-21T13:29:14;5.45;;;1.63;;
29712;SDS011;16623;53.632;10.016;2022-08-21T13:31:47;6.78;;;1.42;;
29712;SDS011;16623;53.632;10.016;2022-08-21T13:34:14;3.58;;;1.27;;
29712;SDS011;16623;53.632;10.016;2022-08-21T13:36:42;4.93;;;1.73;;
29712;SDS011;16623;53.632;10.016;2022-08-21T13:39:09;4.88;;;1.50;;
29712;SDS011;16623;53.632;10.016;2022-08-21T13:41:38;2.45;;;1.00;;
29712;SDS011;16623;53.632;10.016;2022-08-21T13:44:14;2.17;;;1.20;;
29712;SDS011;16623;53.632;10.016;2022-08-21T13:46:46;2.63;;;1.38;;
29712;SDS011;16623;53.632;10.016;2022-08-21T13:49:15;3.90;;;1.52;;
29712;SDS011;16623;53.632;10.016;2022-08-21T13:51:41;1.92;;;0.90;;
29712;SDS011;16623;53.632;10.016;2022-08-21T13:54:42;6.07;;;1.88;;
29712;SDS011;16623;53.632;10.016;2022-08-21T13:57:15;2.85;;;1.30;;
29712;SDS011;16623;53.632;10.016;2022-08-21T13:59:41;5.43;;;1.33;;
29712;SDS011;16623;53.632;10.016;2022-08-21T14:02:12;1.33;;;1.17;;
29712;SDS011;16623;53.632;10.016;2022-08-21T14:04:51;3.47;;;1.10;;
29712;SDS011;16623;53.632;10.016;2022-08-21T14:07:26;3.88;;;1.30;;
29712;SDS011;16623;53.632;10.016;2022-08-21T14:09:56;2.45;;;1.23;;
29712;SDS011;16623;53.632;10.016;2022-08-21T14:12:26;5.30;;;1.70;;
29712;SDS011;16623;53.632;10.016;2022-08-21T14:14:56;3.08;;;1.45;;
29712;SDS011;16623;53.632;10.016;2022-08-21T14:17:31;1.65;;;1.00;;
29712;SDS011;16623;53.632;10.016;2022-08-21T14:20:00;2.35;;;1.35;;
29712;SDS011;16623;53.632;10.016;2022-08-21T14:25:01;5.13;;;1.23;;
29712;SDS011;16623;53.632;10.016;2022-08-21T14:27:35;3.92;;;1.45;;
29712;SDS011;16623;53.632;10.016;2022-08-21T14:30:08;5.22;;;1.45;;
29712;SDS011;16623;53.632;10.016;2022-08-21T14:32:39;4.57;;;1.63;;
29712;SDS011;16623;53.632;10.016;2022-08-21T14:35:05;3.53;;;1.73;;
29712;SDS011;16623;53.632;10.016;2022-08-21T14:37:31;3.40;;;1.38;;
29712;SDS011;16623;53.632;10.016;2022-08-21T14:39:57;4.32;;;1.10;;
29712;SDS011;16623;53.632;10.016;2022-08-21T14:42:23;2.65;;;1.30;;
29712;SDS011;16623;53.632;10.016;2022-08-21T14:44:49;4.78;;;1.30;;
29712;SDS011;16623;53.632;10.016;2022-08-21T14:47:15;4.90;;;1.88;;
29712;SDS011;16623;53.632;10.016;2022-08-21T14:49:41;7.40;;;1.48;;
29712;SDS011;16623;53.632;10.016;2022-08-21T14:52:07;3.63;;;1.20;;
29712;SDS011;16623;53.632;10.016;2022-08-21T14:54:33;5.18;;;1.25;;
29712;SDS011;16623;53.632;10.016;2022-08-21T14:57:00;3.72;;;1.50;;
29712;SDS011;16623;53.632;10.016;2022-08-21T14:59:30;3.42;;;1.20;;
29712;SDS011;16623;53.632;10.016;2022-08-21T15:01:57;4.60;;;1.10;;
29712;SDS011;16623;53.632;10.016;2022-08-21T15:04:23;3.03;;;1.48;;
29712;SDS011;16623;53.632;10.016;2022-08-21T15:06:49;10.27;;;1.38;;
29712;SDS011;16623;53.632;10.016;2022-08-21T15:09:14;5.22;;;1.40;;
29712;SDS011;16623;53.632;10.016;2022-08-21T15:11:39;2.42;;;0.95;;
29712;SDS011;16623;53.632;10.016;2022-08-21T15:14:06;2.25;;;1.08;;
29712;SDS011;16623;53.632;10.016;2022-08-21T15:16:36;5.80;;;1.30;;
29712;SDS011;16623;53.632;10.016;2022-08-21T15:19:02;3.78;;;1.15;;
29712;SDS011;16623;53.632;10.016;2022-08-21T15:21:27;2.97;;;1.25;;
29712;SDS011;16623;53.632;10.016;2022-08-21T15:23:53;3.63;;;1.15;;
29712;SDS011;16623;53.632;10.016;2022-08-21T15:26:19;5.15;;;1.02;;
29712;SDS011;16623;53.632;10.016;2022-08-21T15:28:47;3.80;;;1.20;;
29712;SDS011;16623;53.632;10.016;2022-08-21T15:31:12;7.13;;;1.50;;
29712;SDS011;16623;53.632;10.016;2022-08-21T15:33:38;2.45;;;1.20;;